sensor_id;sensor_type;location;lat;lon;timestamp;P1;durP1;ratioP1;P2;durP2;ratioP2
11533;SDS011;5823;50.588;8.462;2023-10-08T00:01:09;0.35;;;0.35;;
11533;SDS011;5823;50.588;8.462;2023-10-08T00:03:39;0.30;;;0.30;;
11533;SDS011;5823;50.588;8.462;2023-10-08T00:06:06;0.30;;;0.30;;
11533;SDS011;5823;50.588;8.462;2023-10-08T00:08:37;0.40;;;0.40;;
11533;SDS011;5823;50.588;8.462;2023-10-08T00:11:03;0.45;;;0.45;;
11533;SDS011;5823;50.588;8.462;2023-10-08T00:13:32;0.32;;;0.32;;
11533;SDS011;5823;50.588;8.462;2023-10-08T00:16:04;0.30;;;0.30;;
11533;SDS011;5823;50.588;8.462;2023-10-08T00:18:35;0.47;;;0.47;;
11533;SDS011;5823;50.588;8.462;2023-10-08T00:21:02;0.50;;;0.50;;
11533;SDS011;5823;50.588;8.462;2023-10-08T00:23:41;0.73;;;0.73;;
11533;SDS011;5823;50.588;8.462;2023-10-08T00:26:13;0.77;;;0.77;;
11533;SDS011;5823;50.588;8.462;2023-10-08T00:28:43;1.45;;;0.77;;
11533;SDS011;5823;50.588;8.462;2023-10-08T00:31:12;0.73;;;0.70;;
11533;SDS011;5823;50.588;8.462;2023-10-08T00:33:40;1.10;;;1.00;;
11533;SDS011;5823;50.588;8.462;2023-10-08T00:36:09;1.05;;;0.90;;
11533;SDS011;5823;50.588;8.462;2023-10-08T00:38:44;0.70;;;0.70;;
11533;SDS011;5823;50.588;8.462;2023-10-08T00:41:12;0.80;;;0.80;;
11533;SDS011;5823;50.588;8.462;2023-10-08T00:43:39;0.68;;;0.68;;
11533;SDS011;5823;50.588;8.462;2023-10-08T00:46:07;0.50;;;0.50;;
11533;SDS011;5823;50.588;8.462;2023-10-08T00:48:47;1.02;;;0.75;;
11533;SDS011;5823;50.588;8.462;2023-10-08T00:51:13;0.75;;;0.75;;
11533;SDS011;5823;50.588;8.462;2023-10-08T00:53:52;0.77;;;0.77;;
11533;SDS011;5823;50.588;8.462;2023-10-08T00:56:22;0.47;;;0.47;;
11533;SDS011;5823;50.588;8.462;2023-10-08T00:58:50;0.55;;;0.55;;
11533;SDS011;5823;50.588;8.462;2023-10-08T01:01:18;0.30;;;0.30;;
11533;SDS011;5823;50.588;8.462;2023-10-08T01:03:48;0.25;;;0.25;;
11533;SDS011;5823;50.588;8.462;2023-10-08T01:06:15;0.40;;;0.40;;
11533;SDS011;5823;50.588;8.462;2023-10-08T01:08:43;0.30;;;0.30;;
11533;SDS011;5823;50.588;8.462;2023-10-08T01:11:19;0.20;;;0.20;;
11533;SDS011;5823;50.588;8.462;2023-10-08T01:13:47;0.20;;;0.20;;
11533;SDS011;5823;50.588;8.462;2023-10-08T01:16:14;0.20;;;0.20;;
11533;SDS011;5823;50.588;8.462;2023-10-08T01:18:40;0.30;;;0.30;;
11533;SDS011;5823;50.588;8.462;2023-10-08T01:21:16;0.30;;;0.30;;
11533;SDS011;5823;50.588;8.462;2023-10-08T01:23:58;0.20;;;0.20;;
11533;SDS011;5823;50.588;8.462;2023-10-08T01:26:25;0.50;;;0.50;;
11533;SDS011;5823;50.588;8.462;2023-10-08T01:28:54;0.30;;;0.30;;
11533;SDS011;5823;50.588;8.462;2023-10-08T01:31:20;0.40;;;0.32;;
11533;SDS011;5823;50.588;8.462;2023-10-08T01:33:47;1.50;;;0.38;;
11533;SDS011;5823;50.588;8.462;2023-10-08T01:36:15;0.38;;;0.38;;
11533;SDS011;5823;50.588;8.462;2023-10-08T01:38:41;0.95;;;0.50;;
11533;SDS011;5823;50.588;8.462;2023-10-08T01:41:09;0.15;;;0.15;;
11533;SDS011;5823;50.588;8.462;2023-10-08T01:43:43;0.35;;;0.35;;
11533;SDS011;5823;50.588;8.462;2023-10-08T01:46:10;0.20;;;0.20;;
11533;SDS011;5823;50.588;8.462;2023-10-08T01:48:37;0.17;;;0.17;;
11533;SDS011;5823;50.588;8.462;2023-10-08T01:51:04;0.30;;;0.30;;
11533;SDS011;5823;50.588;8.462;2023-10-08T01:53:35;0.40;;;0.40;;
11533;SDS011;5823;50.588;8.462;2023-10-08T01:56:01;0.40;;;0.40;;
11533;SDS011;5823;50.588;8.462;2023-10-08T01:58:30;0.35;;;0.35;;
11533;SDS011;5823;50.588;8.462;2023-10-08T02:00:58;0.25;;;0.25;;
11533;SDS011;5823;50.588;8.462;2023-10-08T02:03:25;0.40;;;0.40;;
11533;SDS011;5823;50.588;8.462;2023-10-08T02:05:52;0.20;;;0.20;;
11533;SDS011;5823;50.588;8.462;2023-10-08T02:08:23;0.50;;;0.50;;
11533;SDS011;5823;50.588;8.462;2023-10-08T02:10:51;0.32;;;0.32;;
11533;SDS011;5823;50.588;8.462;2023-10-08T02:13:18;0.38;;;0.38;;
11533;SDS011;5823;50.588;8.462;2023-10-08T02:15:47;0.30;;;0.30;;
11533;SDS011;5823;50.588;8.462;2023-10-08T02:18:15;0.20;;;0.20;;
11533;SDS011;5823;50.588;8.462;2023-10-08T02:20:41;0.35;;;0.30;;
11533;SDS011;5823;50.588;8.462;2023-10-08T02:23:08;0.30;;;0.30;;
11533;SDS011;5823;50.588;8.462;2023-10-08T02:25:36;0.25;;;0.25;;
11533;SDS011;5823;50.588;8.462;2023-10-08T02:28:03;0.20;;;0.20;;
11533;SDS011;5823;50.588;8.462;2023-10-08T02:30:30;0.20;;;0.20;;
11533;SDS011;5823;50.588;8.462;2023-10-08T02:32:57;0.22;;;0.22;;
11533;SDS011;5823;50.588;8.462;2023-10-08T02:35:24;0.40;;;0.40;;
11533;SDS011;5823;50.588;8.462;2023-10-08T02:37:50;0.10;;;0.10;;
11533;SDS011;5823;50.588;8.462;2023-10-08T02:40:17;0.38;;;0.38;;
11533;SDS011;5823;50.588;8.462;2023-10-08T02:42:44;0.35;;;0.35;;
11533;SDS011;5823;50.588;8.462;2023-10-08T02:45:11;0.45;;;0.45;;
11533;SDS011;5823;50.588;8.462;2023-10-08T02:47:39;0.50;;;0.50;;
11533;SDS011;5823;50.588;8.462;2023-10-08T02:50:08;0.30;;;0.30;;
11533;SDS011;5823;50.588;8.462;2023-10-08T02:52:35;0.30;;;0.30;;
11533;SDS011;5823;50.588;8.462;2023-10-08T02:55:01;0.35;;;0.30;;
11533;SDS011;5823;50.588;8.462;2023-10-08T02:57:30;0.30;;;0.30;;
11533;SDS011;5823;50.588;8.462;2023-10-08T02:59:57;0.28;;;0.25;;
11533;SDS011;5823;50.588;8.462;2023-10-08T03:02:23;0.30;;;0.30;;
11533;SDS011;5823;50.588;8.462;2023-10-08T03:04:51;0.32;;;0.30;;
11533;SDS011;5823;50.588;8.462;2023-10-08T03:07:19;0.20;;;0.20;;
11533;SDS011;5823;50.588;8.462;2023-10-08T03:09:57;0.20;;;0.20;;
11533;SDS011;5823;50.588;8.462;2023-10-08T03:12:31;0.30;;;0.30;;
11533;SDS011;5823;50.588;8.462;2023-10-08T03:14:57;0.50;;;0.32;;
11533;SDS011;5823;50.588;8.462;2023-10-08T03:17:37;0.50;;;0.50;;
11533;SDS011;5823;50.588;8.462;2023-10-08T03:20:13;0.35;;;0.35;;
11533;SDS011;5823;50.588;8.462;2023-10-08T03:22:56;0.38;;;0.38;;
11533;SDS011;5823;50.588;8.462;2023-10-08T03:25:23;0.40;;;0.30;;
11533;SDS011;5823;50.588;8.462;2023-10-08T03:27:50;0.50;;;0.50;;
11533;SDS011;5823;50.588;8.462;2023-10-08T03:30:19;0.60;;;0.60;;
11533;SDS011;5823;50.588;8.462;2023-10-08T03:32:45;0.20;;;0.20;;
11533;SDS011;5823;50.588;8.462;2023-10-08T03:35:15;0.35;;;0.20;;
11533;SDS011;5823;50.588;8.462;2023-10-08T03:37:49;0.22;;;0.22;;
11533;SDS011;5823;50.588;8.462;2023-10-08T03:40:17;0.43;;;0.32;;
11533;SDS011;5823;50.588;8.462;2023-10-08T03:42:57;0.50;;;0.38;;
11533;SDS011;5823;50.588;8.462;2023-10-08T03:45:23;0.30;;;0.20;;
11533;SDS011;5823;50.588;8.462;2023-10-08T03:48:07;0.20;;;0.20;;
11533;SDS011;5823;50.588;8.462;2023-10-08T03:50:40;0.30;;;0.30;;
11533;SDS011;5823;50.588;8.462;2023-10-08T03:53:08;0.32;;;0.32;;
11533;SDS011;5823;50.588;8.462;2023-10-08T03:55:38;0.30;;;0.30;;
11533;SDS011;5823;50.588;8.462;2023-10-08T03:58:06;0.32;;;0.32;;
11533;SDS011;5823;50.588;8.462;2023-10-08T04:00:36;0.32;;;0.32;;
11533;SDS011;5823;50.588;8.462;2023-10-08T04:03:06;0.10;;;0.10;;
11533;SDS011;5823;50.588;8.462;2023-10-08T04:05:36;0.30;;;0.30;;
11533;SDS011;5823;50.588;8.462;2023-10-08T04:08:24;0.22;;;0.22;;
11533;SDS011;5823;50.588;8.462;2023-10-08T04:11:08;0.28;;;0.25;;
11533;SDS011;5823;50.588;8.462;2023-10-08T04:13:47;0.15;;;0.15;;
11533;SDS011;5823;50.588;8.462;2023-10-08T04:16:14;0.40;;;0.35;;
11533;SDS011;5823;50.588;8.462;2023-10-08T04:18:43;0.30;;;0.30;;
11533;SDS011;5823;50.588;8.462;2023-10-08T04:21:10;0.55;;;0.45;;
11533;SDS011;5823;50.588;8.462;2023-10-08T04:23:39;1.40;;;0.50;;
11533;SDS011;5823;50.588;8.462;2023-10-08T04:26:05;0.55;;;0.55;;
11533;SDS011;5823;50.588;8.462;2023-10-08T04:28:33;0.77;;;0.50;;
11533;SDS011;5823;50.588;8.462;2023-10-08T04:31:00;0.50;;;0.50;;
11533;SDS011;5823;50.588;8.462;2023-10-08T04:33:39;0.55;;;0.55;;
11533;SDS011;5823;50.588;8.462;2023-10-08T04:36:06;0.77;;;0.60;;
11533;SDS011;5823;50.588;8.462;2023-10-08T04:38:33;0.35;;;0.35;;
11533;SDS011;5823;50.588;8.462;2023-10-08T04:41:04;0.77;;;0.77;;
11533;SDS011;5823;50.588;8.462;2023-10-08T04:43:35;0.52;;;0.45;;
11533;SDS011;5823;50.588;8.462;2023-10-08T04:46:04;0.45;;;0.35;;
11533;SDS011;5823;50.588;8.462;2023-10-08T04:48:44;0.30;;;0.30;;
11533;SDS011;5823;50.588;8.462;2023-10-08T04:51:10;0.63;;;0.50;;
11533;SDS011;5823;50.588;8.462;2023-10-08T04:53:38;0.30;;;0.30;;
11533;SDS011;5823;50.588;8.462;2023-10-08T04:56:06;0.20;;;0.20;;
11533;SDS011;5823;50.588;8.462;2023-10-08T04:58:39;0.35;;;0.30;;
11533;SDS011;5823;50.588;8.462;2023-10-08T05:01:06;0.32;;;0.32;;
11533;SDS011;5823;50.588;8.462;2023-10-08T05:03:47;0.13;;;0.13;;
11533;SDS011;5823;50.588;8.462;2023-10-08T05:06:46;0.60;;;0.60;;
11533;SDS011;5823;50.588;8.462;2023-10-08T05:09:26;0.73;;;0.50;;
11533;SDS011;5823;50.588;8.462;2023-10-08T05:12:04;0.77;;;0.40;;
11533;SDS011;5823;50.588;8.462;2023-10-08T05:14:55;0.40;;;0.40;;
11533;SDS011;5823;50.588;8.462;2023-10-08T05:17:38;0.68;;;0.60;;
11533;SDS011;5823;50.588;8.462;2023-10-08T05:20:21;0.47;;;0.47;;
11533;SDS011;5823;50.588;8.462;2023-10-08T05:23:05;0.73;;;0.63;;
11533;SDS011;5823;50.588;8.462;2023-10-08T05:25:45;0.47;;;0.45;;
11533;SDS011;5823;50.588;8.462;2023-10-08T05:28:23;0.65;;;0.63;;
11533;SDS011;5823;50.588;8.462;2023-10-08T05:30:51;0.40;;;0.40;;
11533;SDS011;5823;50.588;8.462;2023-10-08T05:33:19;0.65;;;0.50;;
11533;SDS011;5823;50.588;8.462;2023-10-08T05:36:05;0.50;;;0.50;;
11533;SDS011;5823;50.588;8.462;2023-10-08T05:38:35;0.75;;;0.50;;
11533;SDS011;5823;50.588;8.462;2023-10-08T05:41:13;0.28;;;0.28;;
11533;SDS011;5823;50.588;8.462;2023-10-08T05:44:04;0.40;;;0.40;;
11533;SDS011;5823;50.588;8.462;2023-10-08T05:46:49;0.25;;;0.25;;
11533;SDS011;5823;50.588;8.462;2023-10-08T05:49:33;0.35;;;0.32;;
11533;SDS011;5823;50.588;8.462;2023-10-08T05:52:19;0.30;;;0.30;;
11533;SDS011;5823;50.588;8.462;2023-10-08T05:54:53;0.30;;;0.30;;
11533;SDS011;5823;50.588;8.462;2023-10-08T05:57:37;0.38;;;0.38;;
11533;SDS011;5823;50.588;8.462;2023-10-08T06:00:06;0.45;;;0.40;;
11533;SDS011;5823;50.588;8.462;2023-10-08T06:02:51;0.50;;;0.50;;
11533;SDS011;5823;50.588;8.462;2023-10-08T06:05:34;0.32;;;0.32;;
11533;SDS011;5823;50.588;8.462;2023-10-08T06:08:08;0.38;;;0.38;;
11533;SDS011;5823;50.588;8.462;2023-10-08T06:10:38;0.30;;;0.30;;
11533;SDS011;5823;50.588;8.462;2023-10-08T06:13:21;0.20;;;0.20;;
11533;SDS011;5823;50.588;8.462;2023-10-08T06:15:55;0.38;;;0.32;;
11533;SDS011;5823;50.588;8.462;2023-10-08T06:18:32;0.30;;;0.30;;
11533;SDS011;5823;50.588;8.462;2023-10-08T06:21:00;0.32;;;0.32;;
11533;SDS011;5823;50.588;8.462;2023-10-08T06:23:25;0.40;;;0.40;;
11533;SDS011;5823;50.588;8.462;2023-10-08T06:25:53;0.20;;;0.20;;
11533;SDS011;5823;50.588;8.462;2023-10-08T06:28:22;0.50;;;0.50;;
11533;SDS011;5823;50.588;8.462;2023-10-08T06:30:51;0.40;;;0.40;;
11533;SDS011;5823;50.588;8.462;2023-10-08T06:33:18;0.30;;;0.30;;
11533;SDS011;5823;50.588;8.462;2023-10-08T06:35:46;0.40;;;0.40;;
11533;SDS011;5823;50.588;8.462;2023-10-08T06:38:26;0.63;;;0.30;;
11533;SDS011;5823;50.588;8.462;2023-10-08T06:40:55;0.32;;;0.32;;
11533;SDS011;5823;50.588;8.462;2023-10-08T06:43:25;0.22;;;0.20;;
11533;SDS011;5823;50.588;8.462;2023-10-08T06:45:51;0.30;;;0.30;;
11533;SDS011;5823;50.588;8.462;2023-10-08T06:48:23;0.30;;;0.30;;
11533;SDS011;5823;50.588;8.462;2023-10-08T06:50:51;0.30;;;0.30;;
11533;SDS011;5823;50.588;8.462;2023-10-08T06:53:22;0.30;;;0.30;;
11533;SDS011;5823;50.588;8.462;2023-10-08T06:55:48;0.10;;;0.10;;
11533;SDS011;5823;50.588;8.462;2023-10-08T06:58:21;0.28;;;0.28;;
11533;SDS011;5823;50.588;8.462;2023-10-08T07:00:48;0.30;;;0.30;;
11533;SDS011;5823;50.588;8.462;2023-10-08T07:03:15;0.47;;;0.47;;
11533;SDS011;5823;50.588;8.462;2023-10-08T07:05:43;0.45;;;0.38;;
11533;SDS011;5823;50.588;8.462;2023-10-08T07:08:20;0.43;;;0.28;;
11533;SDS011;5823;50.588;8.462;2023-10-08T07:10:48;0.40;;;0.40;;
11533;SDS011;5823;50.588;8.462;2023-10-08T07:13:14;0.50;;;0.50;;
11533;SDS011;5823;50.588;8.462;2023-10-08T07:15:42;0.30;;;0.30;;
11533;SDS011;5823;50.588;8.462;2023-10-08T07:18:10;0.30;;;0.30;;
11533;SDS011;5823;50.588;8.462;2023-10-08T07:20:38;0.40;;;0.40;;
11533;SDS011;5823;50.588;8.462;2023-10-08T07:23:07;0.43;;;0.43;;
11533;SDS011;5823;50.588;8.462;2023-10-08T07:25:48;0.90;;;0.70;;
11533;SDS011;5823;50.588;8.462;2023-10-08T07:28:18;0.38;;;0.38;;
11533;SDS011;5823;50.588;8.462;2023-10-08T07:30:45;0.28;;;0.28;;
11533;SDS011;5823;50.588;8.462;2023-10-08T07:33:14;0.60;;;0.60;;
11533;SDS011;5823;50.588;8.462;2023-10-08T07:35:44;0.70;;;0.70;;
11533;SDS011;5823;50.588;8.462;2023-10-08T07:38:16;0.35;;;0.35;;
11533;SDS011;5823;50.588;8.462;2023-10-08T07:40:42;0.60;;;0.60;;
11533;SDS011;5823;50.588;8.462;2023-10-08T07:43:11;0.40;;;0.40;;
11533;SDS011;5823;50.588;8.462;2023-10-08T07:45:37;0.30;;;0.30;;
11533;SDS011;5823;50.588;8.462;2023-10-08T07:48:04;0.50;;;0.50;;
11533;SDS011;5823;50.588;8.462;2023-10-08T07:50:34;0.40;;;0.40;;
11533;SDS011;5823;50.588;8.462;2023-10-08T07:53:02;0.52;;;0.52;;
11533;SDS011;5823;50.588;8.462;2023-10-08T07:55:29;0.43;;;0.40;;
11533;SDS011;5823;50.588;8.462;2023-10-08T07:57:57;0.30;;;0.30;;
11533;SDS011;5823;50.588;8.462;2023-10-08T08:00:25;0.45;;;0.45;;
11533;SDS011;5823;50.588;8.462;2023-10-08T08:02:55;0.38;;;0.38;;
11533;SDS011;5823;50.588;8.462;2023-10-08T08:05:22;0.35;;;0.35;;
11533;SDS011;5823;50.588;8.462;2023-10-08T08:07:50;0.65;;;0.40;;
11533;SDS011;5823;50.588;8.462;2023-10-08T08:10:17;0.32;;;0.32;;
11533;SDS011;5823;50.588;8.462;2023-10-08T08:12:44;0.40;;;0.40;;
11533;SDS011;5823;50.588;8.462;2023-10-08T08:15:11;0.70;;;0.70;;
11533;SDS011;5823;50.588;8.462;2023-10-08T08:17:42;0.50;;;0.50;;
11533;SDS011;5823;50.588;8.462;2023-10-08T08:20:08;0.28;;;0.28;;
11533;SDS011;5823;50.588;8.462;2023-10-08T08:22:43;0.52;;;0.50;;
11533;SDS011;5823;50.588;8.462;2023-10-08T08:25:14;0.50;;;0.50;;
11533;SDS011;5823;50.588;8.462;2023-10-08T08:27:41;0.40;;;0.40;;
11533;SDS011;5823;50.588;8.462;2023-10-08T08:30:09;0.47;;;0.43;;
11533;SDS011;5823;50.588;8.462;2023-10-08T08:32:36;0.50;;;0.50;;
11533;SDS011;5823;50.588;8.462;2023-10-08T08:35:06;0.73;;;0.70;;
11533;SDS011;5823;50.588;8.462;2023-10-08T08:37:34;0.65;;;0.57;;
11533;SDS011;5823;50.588;8.462;2023-10-08T08:40:03;0.35;;;0.35;;
11533;SDS011;5823;50.588;8.462;2023-10-08T08:42:32;0.35;;;0.35;;
11533;SDS011;5823;50.588;8.462;2023-10-08T08:45:00;0.40;;;0.40;;
11533;SDS011;5823;50.588;8.462;2023-10-08T08:47:28;0.40;;;0.40;;
11533;SDS011;5823;50.588;8.462;2023-10-08T08:49:55;0.55;;;0.30;;
11533;SDS011;5823;50.588;8.462;2023-10-08T08:52:26;0.30;;;0.30;;
11533;SDS011;5823;50.588;8.462;2023-10-08T08:54:52;0.40;;;0.40;;
11533;SDS011;5823;50.588;8.462;2023-10-08T08:57:19;0.40;;;0.40;;
11533;SDS011;5823;50.588;8.462;2023-10-08T08:59:47;0.35;;;0.35;;
11533;SDS011;5823;50.588;8.462;2023-10-08T09:02:17;0.50;;;0.50;;
11533;SDS011;5823;50.588;8.462;2023-10-08T09:04:44;0.40;;;0.30;;
11533;SDS011;5823;50.588;8.462;2023-10-08T09:07:12;0.20;;;0.20;;
11533;SDS011;5823;50.588;8.462;2023-10-08T09:09:39;0.50;;;0.50;;
11533;SDS011;5823;50.588;8.462;2023-10-08T09:12:06;0.40;;;0.40;;
11533;SDS011;5823;50.588;8.462;2023-10-08T09:14:35;0.40;;;0.40;;
11533;SDS011;5823;50.588;8.462;2023-10-08T09:17:03;0.40;;;0.40;;
11533;SDS011;5823;50.588;8.462;2023-10-08T09:19:30;0.30;;;0.30;;
11533;SDS011;5823;50.588;8.462;2023-10-08T09:22:02;0.40;;;0.40;;
11533;SDS011;5823;50.588;8.462;2023-10-08T09:24:29;0.40;;;0.40;;
11533;SDS011;5823;50.588;8.462;2023-10-08T09:26:56;0.57;;;0.57;;
11533;SDS011;5823;50.588;8.462;2023-10-08T09:29:23;0.60;;;0.60;;
11533;SDS011;5823;50.588;8.462;2023-10-08T09:31:51;0.60;;;0.60;;
11533;SDS011;5823;50.588;8.462;2023-10-08T09:34:20;0.30;;;0.30;;
11533;SDS011;5823;50.588;8.462;2023-10-08T09:36:47;0.50;;;0.50;;
11533;SDS011;5823;50.588;8.462;2023-10-08T09:39:13;0.35;;;0.35;;
11533;SDS011;5823;50.588;8.462;2023-10-08T09:41:48;0.50;;;0.50;;
11533;SDS011;5823;50.588;8.462;2023-10-08T09:44:17;0.60;;;0.60;;
11533;SDS011;5823;50.588;8.462;2023-10-08T09:46:44;0.73;;;0.70;;
11533;SDS011;5823;50.588;8.462;2023-10-08T09:49:12;0.60;;;0.60;;
11533;SDS011;5823;50.588;8.462;2023-10-08T09:51:39;0.55;;;0.55;;
11533;SDS011;5823;50.588;8.462;2023-10-08T09:54:05;0.40;;;0.40;;
11533;SDS011;5823;50.588;8.462;2023-10-08T09:56:35;0.63;;;0.57;;
11533;SDS011;5823;50.588;8.462;2023-10-08T09:59:04;0.40;;;0.40;;
11533;SDS011;5823;50.588;8.462;2023-10-08T10:01:31;0.60;;;0.60;;
11533;SDS011;5823;50.588;8.462;2023-10-08T10:03:58;0.60;;;0.60;;
11533;SDS011;5823;50.588;8.462;2023-10-08T10:06:25;0.80;;;0.50;;
11533;SDS011;5823;50.588;8.462;2023-10-08T10:08:52;0.52;;;0.52;;
11533;SDS011;5823;50.588;8.462;2023-10-08T10:11:25;0.40;;;0.40;;
11533;SDS011;5823;50.588;8.462;2023-10-08T10:13:57;0.30;;;0.30;;
11533;SDS011;5823;50.588;8.462;2023-10-08T10:16:25;0.65;;;0.65;;
11533;SDS011;5823;50.588;8.462;2023-10-08T10:18:54;0.63;;;0.60;;
11533;SDS011;5823;50.588;8.462;2023-10-08T10:21:25;0.68;;;0.68;;
11533;SDS011;5823;50.588;8.462;2023-10-08T10:23:52;0.40;;;0.40;;
11533;SDS011;5823;50.588;8.462;2023-10-08T10:26:23;0.70;;;0.70;;
11533;SDS011;5823;50.588;8.462;2023-10-08T10:31:35;0.50;;;0.50;;
11533;SDS011;5823;50.588;8.462;2023-10-08T10:34:05;0.55;;;0.55;;
11533;SDS011;5823;50.588;8.462;2023-10-08T10:36:33;0.63;;;0.63;;
11533;SDS011;5823;50.588;8.462;2023-10-08T10:38:59;0.57;;;0.50;;
11533;SDS011;5823;50.588;8.462;2023-10-08T10:41:27;0.60;;;0.60;;
11533;SDS011;5823;50.588;8.462;2023-10-08T10:43:53;0.93;;;0.73;;
11533;SDS011;5823;50.588;8.462;2023-10-08T10:46:19;1.17;;;0.85;;
11533;SDS011;5823;50.588;8.462;2023-10-08T10:48:55;0.38;;;0.38;;
11533;SDS011;5823;50.588;8.462;2023-10-08T10:51:44;0.63;;;0.40;;
11533;SDS011;5823;50.588;8.462;2023-10-08T10:54:09;0.70;;;0.50;;
11533;SDS011;5823;50.588;8.462;2023-10-08T10:56:36;0.40;;;0.40;;
11533;SDS011;5823;50.588;8.462;2023-10-08T10:59:07;0.52;;;0.52;;
11533;SDS011;5823;50.588;8.462;2023-10-08T11:01:41;0.47;;;0.47;;
11533;SDS011;5823;50.588;8.462;2023-10-08T11:04:11;0.57;;;0.43;;
11533;SDS011;5823;50.588;8.462;2023-10-08T11:06:41;0.60;;;0.60;;
11533;SDS011;5823;50.588;8.462;2023-10-08T11:09:08;0.60;;;0.60;;
11533;SDS011;5823;50.588;8.462;2023-10-08T11:11:39;0.40;;;0.40;;
11533;SDS011;5823;50.588;8.462;2023-10-08T11:14:10;0.35;;;0.35;;
11533;SDS011;5823;50.588;8.462;2023-10-08T11:16:41;0.40;;;0.30;;
11533;SDS011;5823;50.588;8.462;2023-10-08T11:19:08;0.47;;;0.40;;
11533;SDS011;5823;50.588;8.462;2023-10-08T11:21:47;0.30;;;0.30;;
11533;SDS011;5823;50.588;8.462;2023-10-08T11:24:26;0.60;;;0.60;;
11533;SDS011;5823;50.588;8.462;2023-10-08T11:26:53;0.70;;;0.70;;
11533;SDS011;5823;50.588;8.462;2023-10-08T11:29:31;0.40;;;0.40;;
11533;SDS011;5823;50.588;8.462;2023-10-08T11:31:57;0.52;;;0.52;;
11533;SDS011;5823;50.588;8.462;2023-10-08T11:34:30;0.70;;;0.57;;
11533;SDS011;5823;50.588;8.462;2023-10-08T11:37:01;0.40;;;0.40;;
11533;SDS011;5823;50.588;8.462;2023-10-08T11:39:39;0.40;;;0.40;;
11533;SDS011;5823;50.588;8.462;2023-10-08T11:42:10;0.32;;;0.32;;
11533;SDS011;5823;50.588;8.462;2023-10-08T11:44:51;0.47;;;0.47;;
11533;SDS011;5823;50.588;8.462;2023-10-08T11:47:17;0.30;;;0.30;;
11533;SDS011;5823;50.588;8.462;2023-10-08T11:49:46;0.68;;;0.68;;
11533;SDS011;5823;50.588;8.462;2023-10-08T11:52:15;0.77;;;0.70;;
11533;SDS011;5823;50.588;8.462;2023-10-08T11:54:47;0.50;;;0.50;;
11533;SDS011;5823;50.588;8.462;2023-10-08T11:57:14;0.47;;;0.47;;
11533;SDS011;5823;50.588;8.462;2023-10-08T11:59:44;1.27;;;0.52;;
11533;SDS011;5823;50.588;8.462;2023-10-08T12:02:12;0.43;;;0.40;;
11533;SDS011;5823;50.588;8.462;2023-10-08T12:04:41;0.45;;;0.45;;
11533;SDS011;5823;50.588;8.462;2023-10-08T12:07:09;0.35;;;0.35;;
11533;SDS011;5823;50.588;8.462;2023-10-08T12:09:36;0.40;;;0.40;;
11533;SDS011;5823;50.588;8.462;2023-10-08T12:12:06;0.50;;;0.50;;
11533;SDS011;5823;50.588;8.462;2023-10-08T12:14:34;0.93;;;0.60;;
11533;SDS011;5823;50.588;8.462;2023-10-08T12:17:00;0.85;;;0.60;;
11533;SDS011;5823;50.588;8.462;2023-10-08T12:19:36;0.40;;;0.40;;
11533;SDS011;5823;50.588;8.462;2023-10-08T12:22:02;0.63;;;0.50;;
11533;SDS011;5823;50.588;8.462;2023-10-08T12:24:28;0.38;;;0.38;;
11533;SDS011;5823;50.588;8.462;2023-10-08T12:26:55;0.35;;;0.28;;
11533;SDS011;5823;50.588;8.462;2023-10-08T12:29:25;0.30;;;0.30;;
11533;SDS011;5823;50.588;8.462;2023-10-08T12:31:52;0.10;;;0.10;;
11533;SDS011;5823;50.588;8.462;2023-10-08T12:34:18;0.40;;;0.40;;
11533;SDS011;5823;50.588;8.462;2023-10-08T12:36:48;0.35;;;0.30;;
11533;SDS011;5823;50.588;8.462;2023-10-08T12:39:15;0.10;;;0.10;;
11533;SDS011;5823;50.588;8.462;2023-10-08T12:41:41;0.35;;;0.20;;
11533;SDS011;5823;50.588;8.462;2023-10-08T12:44:08;0.20;;;0.20;;
11533;SDS011;5823;50.588;8.462;2023-10-08T12:46:36;0.20;;;0.20;;
11533;SDS011;5823;50.588;8.462;2023-10-08T12:49:03;0.15;;;0.15;;
11533;SDS011;5823;50.588;8.462;2023-10-08T12:51:29;0.20;;;0.20;;
11533;SDS011;5823;50.588;8.462;2023-10-08T12:53:58;0.20;;;0.20;;
11533;SDS011;5823;50.588;8.462;2023-10-08T12:56:28;0.10;;;0.10;;
11533;SDS011;5823;50.588;8.462;2023-10-08T12:59:01;0.13;;;0.13;;
11533;SDS011;5823;50.588;8.462;2023-10-08T13:01:29;0.00;;;0.00;;
11533;SDS011;5823;50.588;8.462;2023-10-08T13:03:57;0.30;;;0.20;;
11533;SDS011;5823;50.588;8.462;2023-10-08T13:06:26;0.30;;;0.30;;
11533;SDS011;5823;50.588;8.462;2023-10-08T13:08:54;0.20;;;0.20;;
11533;SDS011;5823;50.588;8.462;2023-10-08T13:11:20;0.40;;;0.38;;
11533;SDS011;5823;50.588;8.462;2023-10-08T13:13:48;0.10;;;0.10;;
11533;SDS011;5823;50.588;8.462;2023-10-08T13:16:14;0.20;;;0.20;;
11533;SDS011;5823;50.588;8.462;2023-10-08T13:18:40;0.32;;;0.17;;
11533;SDS011;5823;50.588;8.462;2023-10-08T13:21:09;0.13;;;0.13;;
11533;SDS011;5823;50.588;8.462;2023-10-08T13:23:36;0.17;;;0.17;;
11533;SDS011;5823;50.588;8.462;2023-10-08T13:26:02;0.20;;;0.20;;
11533;SDS011;5823;50.588;8.462;2023-10-08T13:28:31;0.17;;;0.13;;
11533;SDS011;5823;50.588;8.462;2023-10-08T13:30:59;0.20;;;0.20;;
11533;SDS011;5823;50.588;8.462;2023-10-08T13:33:25;0.22;;;0.20;;
11533;SDS011;5823;50.588;8.462;2023-10-08T13:35:51;0.20;;;0.20;;
11533;SDS011;5823;50.588;8.462;2023-10-08T13:38:19;0.20;;;0.20;;
11533;SDS011;5823;50.588;8.462;2023-10-08T13:40:46;0.25;;;0.25;;
11533;SDS011;5823;50.588;8.462;2023-10-08T13:43:26;0.00;;;0.00;;
11533;SDS011;5823;50.588;8.462;2023-10-08T13:45:59;0.00;;;0.00;;
11533;SDS011;5823;50.588;8.462;2023-10-08T13:48:29;0.17;;;0.00;;
11533;SDS011;5823;50.588;8.462;2023-10-08T13:50:57;0.10;;;0.10;;
11533;SDS011;5823;50.588;8.462;2023-10-08T13:53:26;0.10;;;0.10;;
11533;SDS011;5823;50.588;8.462;2023-10-08T13:55:54;0.20;;;0.20;;
11533;SDS011;5823;50.588;8.462;2023-10-08T13:58:21;0.10;;;0.10;;
11533;SDS011;5823;50.588;8.462;2023-10-08T14:00:47;0.00;;;0.00;;
11533;SDS011;5823;50.588;8.462;2023-10-08T14:03:18;0.52;;;0.30;;
11533;SDS011;5823;50.588;8.462;2023-10-08T14:05:46;0.08;;;0.08;;
11533;SDS011;5823;50.588;8.462;2023-10-08T14:08:15;0.20;;;0.20;;
11533;SDS011;5823;50.588;8.462;2023-10-08T14:10:42;0.25;;;0.20;;
11533;SDS011;5823;50.588;8.462;2023-10-08T14:13:09;0.10;;;0.10;;
11533;SDS011;5823;50.588;8.462;2023-10-08T14:15:35;0.03;;;0.03;;
11533;SDS011;5823;50.588;8.462;2023-10-08T14:18:07;0.20;;;0.20;;
11533;SDS011;5823;50.588;8.462;2023-10-08T14:20:36;0.08;;;0.08;;
11533;SDS011;5823;50.588;8.462;2023-10-08T14:23:05;0.15;;;0.15;;
11533;SDS011;5823;50.588;8.462;2023-10-08T14:25:31;0.20;;;0.20;;
11533;SDS011;5823;50.588;8.462;2023-10-08T14:27:59;0.20;;;0.20;;
11533;SDS011;5823;50.588;8.462;2023-10-08T14:30:29;0.10;;;0.10;;
11533;SDS011;5823;50.588;8.462;2023-10-08T14:32:56;0.10;;;0.10;;
11533;SDS011;5823;50.588;8.462;2023-10-08T14:35:23;0.10;;;0.10;;
11533;SDS011;5823;50.588;8.462;2023-10-08T14:38:06;0.20;;;0.20;;
11533;SDS011;5823;50.588;8.462;2023-10-08T14:40:50;0.05;;;0.05;;
11533;SDS011;5823;50.588;8.462;2023-10-08T14:43:35;0.13;;;0.13;;
11533;SDS011;5823;50.588;8.462;2023-10-08T14:46:03;0.20;;;0.20;;
11533;SDS011;5823;50.588;8.462;2023-10-08T14:48:30;0.03;;;0.03;;
11533;SDS011;5823;50.588;8.462;2023-10-08T14:51:00;0.10;;;0.10;;
11533;SDS011;5823;50.588;8.462;2023-10-08T14:53:26;0.20;;;0.20;;
11533;SDS011;5823;50.588;8.462;2023-10-08T14:55:53;1.08;;;0.30;;
11533;SDS011;5823;50.588;8.462;2023-10-08T14:58:19;0.20;;;0.20;;
11533;SDS011;5823;50.588;8.462;2023-10-08T15:00:47;0.10;;;0.10;;
11533;SDS011;5823;50.588;8.462;2023-10-08T15:03:13;0.17;;;0.17;;
11533;SDS011;5823;50.588;8.462;2023-10-08T15:05:39;0.10;;;0.10;;
11533;SDS011;5823;50.588;8.462;2023-10-08T15:08:06;0.20;;;0.20;;
11533;SDS011;5823;50.588;8.462;2023-10-08T15:10:34;0.10;;;0.10;;
11533;SDS011;5823;50.588;8.462;2023-10-08T15:13:01;0.20;;;0.20;;
11533;SDS011;5823;50.588;8.462;2023-10-08T15:15:27;0.30;;;0.20;;
11533;SDS011;5823;50.588;8.462;2023-10-08T15:18:01;0.10;;;0.10;;
11533;SDS011;5823;50.588;8.462;2023-10-08T15:20:27;0.40;;;0.10;;